Time;durP1;ratioP1;P1;durP2;ratioP2;P2;SDS_P1;SDS_P2;PMS_P1;PMS_P2;Temp;Humidity;BMP_temperature;BMP_pressure;BME280_temperature;BME280_humidity;BME280_pressure;Samples;Min_cycle;Max_cycle;Signal;HPM_P1;HPM_P2
2022/08/08 00:00:20;;;;;;;4.70;3.72;;;12.30;15.50;;;;;;5031117;28;20045;-84
2022/08/08 00:03:09;;;;;;;5.10;4.55;;;12.20;1.00;;;;;;5028366;28;20055;-85
2022/08/08 00:05:37;;;;;;;5.63;4.35;;;12.30;58.50;;;;;;5035055;28;20045;-84
2022/08/08 00:08:19;;;;;;;5.72;4.47;;;12.30;91.20;;;;;;5026659;28;20500;-85
2022/08/08 00:11:03;;;;;;;5.60;5.03;;;12.20;70.70;;;;;;5014953;28;20103;-84
2022/08/08 00:13:52;;;;;;;6.05;4.57;;;12.20;88.90;;;;;;5018356;28;20068;-84
2022/08/08 00:16:50;;;;;;;6.78;4.85;;;12.20;1.00;;;;;;5020575;28;20051;-84
2022/08/08 00:19:34;;;;;;;6.85;5.18;;;12.10;1.00;;;;;;5023808;28;20029;-84
2022/08/08 00:22:16;;;;;;;7.65;5.30;;;12.20;1.00;;;;;;5030525;28;20129;-84
2022/08/08 00:24:49;;;;;;;5.63;4.50;;;12.10;1.00;;;;;;5011420;28;20466;-84
2022/08/08 00:27:20;;;;;;;9.70;5.60;;;12.10;1.10;;;;;;5011911;28;20044;-84
2022/08/08 00:30:00;;;;;;;8.68;4.50;;;12.00;13.70;;;;;;5036436;28;20037;-84
2022/08/08 00:32:32;;;;;;;4.97;4.47;;;11.80;1.00;;;;;;5014484;28;20067;-84
2022/08/08 00:35:29;;;;;;;4.03;3.50;;;11.80;55.40;;;;;;5038107;28;20073;-84
2022/08/08 00:38:08;;;;;;;5.82;4.13;;;11.70;1.00;;;;;;5025438;28;20072;-84
2022/08/08 00:40:37;;;;;;;6.13;2.40;;;11.70;1.00;;;;;;5011653;28;20073;-84
2022/08/08 00:43:21;;;;;;;5.30;4.80;;;11.70;1.00;;;;;;5027946;28;20152;-84
2022/08/08 00:46:35;;;;;;;6.80;4.10;;;11.70;98.80;;;;;;5014252;28;20041;-84
2022/08/08 00:49:33;;;;;;;6.20;5.07;;;11.70;99.60;;;;;;4982545;28;20506;-84
2022/08/08 00:52:36;;;;;;;4.78;4.20;;;11.70;31.60;;;;;;5038568;28;20029;-84
2022/08/08 00:55:20;;;;;;;4.38;3.92;;;11.80;4.80;;;;;;5014387;28;20484;-84
2022/08/08 00:58:30;;;;;;;6.13;4.07;;;11.70;1.00;;;;;;5028574;28;20042;-84
2022/08/08 01:01:05;;;;;;;5.07;4.35;;;11.70;5.60;;;;;;5011894;28;20084;-84
2022/08/08 01:03:37;;;;;;;5.97;4.47;;;11.70;58.40;;;;;;5020659;28;20106;-84
2022/08/08 01:06:48;;;;;;;5.68;4.45;;;11.70;82.90;;;;;;5037551;28;20527;-84
2022/08/08 01:09:38;;;;;;;5.55;4.97;;;11.50;32.10;;;;;;5036778;28;20107;-84
2022/08/08 01:12:40;;;;;;;5.70;3.90;;;11.50;58.50;;;;;;5028257;28;20037;-84
2022/08/08 01:15:28;;;;;;;3.75;3.03;;;11.60;99.90;;;;;;5028059;28;20041;-84
2022/08/08 01:18:17;;;;;;;4.60;3.70;;;11.50;46.90;;;;;;5018854;28;20037;-84
2022/08/08 01:21:13;;;;;;;3.22;2.92;;;11.50;2.90;;;;;;5012320;28;20053;-83
2022/08/08 01:23:54;;;;;;;5.15;3.80;;;11.40;1.00;;;;;;5019731;28;20284;-84
2022/08/08 01:26:29;;;;;;;4.68;3.70;;;11.40;1.00;;;;;;5038783;28;20095;-84
2022/08/08 01:29:25;;;;;;;3.78;3.47;;;11.40;1.00;;;;;;5032428;28;20045;-84
2022/08/08 01:32:15;;;;;;;4.18;3.67;;;11.40;1.00;;;;;;5014117;28;20184;-84
2022/08/08 01:35:06;;;;;;;4.15;3.58;;;11.30;5.80;;;;;;5038762;28;20417;-84
2022/08/08 01:38:21;;;;;;;3.78;3.40;;;11.30;7.60;;;;;;5014817;28;20038;-83
2022/08/08 01:41:21;;;;;;;4.10;3.70;;;11.30;1.00;;;;;;5029622;28;20279;-84
2022/08/08 01:44:14;;;;;;;4.80;4.28;;;11.30;31.00;;;;;;5018583;28;20048;-84
2022/08/08 01:46:56;;;;;;;6.13;4.22;;;11.30;66.10;;;;;;5054835;28;20433;-83
2022/08/08 01:50:01;;;;;;;5.30;4.40;;;11.30;87.70;;;;;;5015070;28;20033;-84
2022/08/08 01:52:38;;;;;;;4.78;4.25;;;11.30;78.30;;;;;;5020112;28;20064;-84
2022/08/08 01:55:37;;;;;;;5.70;3.85;;;11.30;38.70;;;;;;5019403;28;20037;-84
2022/08/08 01:58:21;;;;;;;5.03;4.25;;;11.20;22.50;;;;;;5018049;28;20055;-84
2022/08/08 02:01:16;;;;;;;5.55;4.95;;;11.20;2.10;;;;;;5029517;28;20104;-84
2022/08/08 02:04:06;;;;;;;5.93;5.30;;;11.30;78.40;;;;;;5041709;28;20080;-84
2022/08/08 02:06:59;;;;;;;7.30;5.47;;;11.20;99.90;;;;;;5021739;28;20326;-84
2022/08/08 02:09:42;;;;;;;6.40;4.85;;;11.20;99.90;;;;;;5012416;28;20448;-84
2022/08/08 02:12:31;;;;;;;7.07;5.45;;;11.30;99.90;;;;;;5016055;28;20166;-84
2022/08/08 02:15:08;;;;;;;5.60;2.97;;;11.30;99.90;;;;;;5035834;28;20051;-84
2022/08/08 02:17:57;;;;;;;5.60;4.95;;;11.20;1.00;;;;;;5051773;28;20404;-84
2022/08/08 02:20:31;;;;;;;7.95;5.65;;;11.30;99.90;;;;;;5015250;28;20049;-84
2022/08/08 02:23:02;;;;;;;6.43;5.82;;;11.30;99.90;;;;;;5025567;28;20045;-84
2022/08/08 02:25:36;;;;;;;6.15;5.53;;;11.20;99.90;;;;;;5016750;28;20047;-83
2022/08/08 02:28:35;;;;;;;6.15;4.55;;;11.20;99.90;;;;;;5009793;28;20033;-84
2022/08/08 02:31:26;;;;;;;6.53;5.20;;;11.20;99.90;;;;;;5036440;28;20342;-84
2022/08/08 02:34:13;;;;;;;6.97;5.45;;;11.20;99.90;;;;;;5012629;28;20046;-84
2022/08/08 02:37:03;;;;;;;5.30;4.03;;;11.20;99.90;;;;;;5034568;28;20040;-84
2022/08/08 02:39:41;;;;;;;4.72;4.00;;;11.10;88.70;;;;;;5012563;28;20456;-84
2022/08/08 02:42:27;;;;;;;6.40;5.32;;;11.20;48.20;;;;;;5013133;28;20037;-84
2022/08/08 02:44:59;;;;;;;5.05;4.55;;;11.20;99.90;;;;;;5032299;28;20041;-84
2022/08/08 02:48:02;;;;;;;6.70;4.85;;;11.20;99.90;;;;;;5018939;28;20438;-84
2022/08/08 02:50:41;;;;;;;7.18;4.82;;;11.10;99.90;;;;;;5017575;28;20037;-84
2022/08/08 02:53:31;;;;;;;5.82;4.50;;;11.20;99.90;;;;;;5027432;28;20093;-84
2022/08/08 02:56:21;;;;;;;6.93;4.75;;;11.20;99.90;;;;;;5010666;28;20430;-84
2022/08/08 02:59:20;;;;;;;5.55;4.65;;;11.20;99.90;;;;;;5006353;28;20045;-84
2022/08/08 03:01:46;;;;;;;5.40;4.57;;;11.20;99.90;;;;;;5017264;28;20095;-84
2022/08/08 03:04:36;;;;;;;6.07;4.57;;;11.20;99.90;;;;;;5037183;28;20135;-84
2022/08/08 03:07:40;;;;;;;6.07;5.47;;;11.20;99.90;;;;;;5026666;28;20037;-84
2022/08/08 03:10:36;;;;;;;6.80;5.07;;;11.30;99.90;;;;;;5019376;28;20488;-84
2022/08/08 03:13:35;;;;;;;7.65;4.72;;;11.30;99.90;;;;;;5029557;28;20037;-84
2022/08/08 03:16:36;;;;;;;10.80;7.07;;;11.20;99.90;;;;;;5021155;28;20516;-84
2022/08/08 03:19:38;;;;;;;6.82;4.70;;;11.30;99.90;;;;;;5034675;28;20547;-84
2022/08/08 03:22:04;;;;;;;4.95;4.25;;;11.30;99.90;;;;;;5018431;28;20120;-84
2022/08/08 03:24:29;;;;;;;6.80;4.90;;;11.40;99.90;;;;;;5025726;28;20033;-84
2022/08/08 03:27:15;;;;;;;4.53;4.03;;;11.40;99.90;;;;;;5006519;28;20337;-83
2022/08/08 03:29:43;;;;;;;4.13;3.72;;;11.40;81.50;;;;;;5011676;28;20041;-84
2022/08/08 03:34:55;;;;;;;5.28;3.80;;;11.10;29.20;;;;;;5028090;28;20072;-83
2022/08/08 03:37:21;;;;;;;3.97;3.58;;;11.10;1.00;;;;;;5011289;28;20376;-84
2022/08/08 03:39:49;;;;;;;4.80;3.90;;;11.10;1.00;;;;;;5029425;28;20562;-83
2022/08/08 03:42:16;;;;;;;5.00;4.10;;;11.10;7.90;;;;;;5034914;28;20144;-84
2022/08/08 03:44:42;;;;;;;4.72;4.05;;;11.10;1.00;;;;;;5015679;28;20152;-84
2022/08/08 03:47:08;;;;;;;4.70;3.63;;;11.10;46.20;;;;;;5020984;28;20100;-83
2022/08/08 03:49:33;;;;;;;6.00;4.38;;;11.20;99.90;;;;;;5033429;28;20037;-84
2022/08/08 03:51:59;;;;;;;5.85;4.47;;;11.20;92.10;;;;;;5033794;28;20037;-84
2022/08/08 03:54:26;;;;;;;4.78;4.28;;;11.30;61.70;;;;;;5030716;28;20463;-84
2022/08/08 03:56:52;;;;;;;4.32;3.92;;;11.30;86.10;;;;;;5016113;28;20052;-84
2022/08/08 03:59:18;;;;;;;14.23;5.40;;;11.40;11.10;;;;;;5016715;28;20033;-84
2022/08/08 04:01:44;;;;;;;10.43;5.10;;;11.30;77.50;;;;;;5015138;28;20349;-84
2022/08/08 04:04:11;;;;;;;9.10;5.60;;;11.40;99.90;;;;;;5027323;28;20125;-84
2022/08/08 04:06:37;;;;;;;9.35;4.72;;;11.50;99.90;;;;;;5015206;28;20437;-84
2022/08/08 04:09:07;;;;;;;8.57;5.05;;;11.50;99.90;;;;;;5019627;28;20033;-84
2022/08/08 04:11:33;;;;;;;7.93;5.40;;;11.50;99.90;;;;;;5012886;28;20604;-84
2022/08/08 04:13:59;;;;;;;6.25;5.40;;;11.50;99.90;;;;;;5040597;28;20175;-84
2022/08/08 04:16:25;;;;;;;6.22;5.18;;;11.50;99.90;;;;;;5035537;28;20116;-83
2022/08/08 04:18:51;;;;;;;6.72;4.90;;;11.50;99.90;;;;;;5037497;28;20068;-84
2022/08/08 04:21:16;;;;;;;9.73;6.00;;;11.60;99.90;;;;;;5016750;28;20065;-84
2022/08/08 04:23:42;;;;;;;7.47;4.18;;;11.60;99.90;;;;;;5031114;28;20416;-83
2022/08/08 04:26:09;;;;;;;6.10;4.65;;;11.60;99.90;;;;;;5015021;28;20620;-84
2022/08/08 04:28:37;;;;;;;5.32;4.13;;;11.60;99.90;;;;;;5014815;28;20488;-84
2022/08/08 04:31:03;;;;;;;8.27;5.38;;;11.60;99.90;;;;;;5036781;28;20536;-83
2022/08/08 04:33:29;;;;;;;5.82;5.00;;;11.60;99.90;;;;;;5011926;28;20139;-84
2022/08/08 04:35:55;;;;;;;6.85;4.97;;;11.70;99.90;;;;;;5028615;28;20067;-84
2022/08/08 04:38:21;;;;;;;5.13;4.30;;;11.60;99.90;;;;;;5012584;28;20041;-83
2022/08/08 04:40:47;;;;;;;11.13;7.18;;;11.60;85.40;;;;;;5013780;28;20048;-84
2022/08/08 04:43:12;;;;;;;7.68;5.68;;;11.90;99.90;;;;;;5018058;28;20220;-84
2022/08/08 04:45:38;;;;;;;10.43;6.05;;;11.80;99.90;;;;;;5015794;28;20113;-83
2022/08/08 04:48:04;;;;;;;8.70;5.75;;;11.90;99.90;;;;;;5013445;28;20030;-84
2022/08/08 04:50:30;;;;;;;9.00;6.05;;;11.90;99.90;;;;;;5058501;28;20052;-84
2022/08/08 04:52:56;;;;;;;6.65;5.95;;;11.90;99.90;;;;;;5013928;28;20041;-83
2022/08/08 04:55:21;;;;;;;7.07;5.47;;;12.10;99.90;;;;;;5028025;28;20064;-83
2022/08/08 04:57:48;;;;;;;7.90;5.45;;;12.00;99.90;;;;;;5028344;28;20656;-83
2022/08/08 05:00:14;;;;;;;6.25;5.65;;;12.10;99.90;;;;;;5029535;28;20072;-84
2022/08/08 05:02:39;;;;;;;6.05;4.72;;;12.10;99.90;;;;;;5028164;28;20128;-84
2022/08/08 05:05:06;;;;;;;8.20;6.45;;;12.10;99.90;;;;;;5013396;28;20112;-84
2022/08/08 05:07:31;;;;;;;7.57;5.55;;;12.20;99.90;;;;;;5009070;28;20562;-83
2022/08/08 05:09:57;;;;;;;7.65;5.65;;;12.30;99.90;;;;;;5014439;28;20040;-84
2022/08/08 05:12:23;;;;;;;7.20;6.03;;;12.40;99.90;;;;;;5009001;28;20041;-83
2022/08/08 05:14:50;;;;;;;8.88;6.80;;;12.40;99.90;;;;;;5025611;28;20037;-84
2022/08/08 05:17:16;;;;;;;10.45;6.60;;;12.50;99.90;;;;;;5011802;28;20379;-83
2022/08/08 05:19:42;;;;;;;8.98;5.95;;;12.50;99.90;;;;;;5029615;28;20052;-83
2022/08/08 05:22:09;;;;;;;7.55;6.18;;;12.60;99.90;;;;;;5052412;28;20377;-84
2022/08/08 05:24:38;;;;;;;9.55;6.30;;;12.60;94.80;;;;;;5008206;28;20501;-84
2022/08/08 05:27:04;;;;;;;7.03;5.55;;;12.70;99.90;;;;;;5016979;28;20618;-83
2022/08/08 05:29:30;;;;;;;9.18;5.97;;;12.70;99.90;;;;;;5016065;28;20025;-84
2022/08/08 05:31:56;;;;;;;10.30;6.43;;;12.80;99.90;;;;;;5031653;28;20049;-83
2022/08/08 05:34:41;;;;;;;8.23;6.47;;;12.90;99.90;;;;;;5016313;28;20091;-84
2022/08/08 05:37:07;;;;;;;6.90;5.70;;;13.10;99.90;;;;;;5016037;28;20059;-84
2022/08/08 05:39:34;;;;;;;6.47;5.78;;;13.20;99.90;;;;;;5012339;28;20037;-84
2022/08/08 05:42:00;;;;;;;8.15;5.90;;;13.20;99.90;;;;;;5005600;28;20033;-84
2022/08/08 05:44:29;;;;;;;9.35;5.88;;;13.40;99.90;;;;;;5018950;28;20132;-84
2022/08/08 05:46:57;;;;;;;10.15;6.75;;;13.50;99.90;;;;;;5010797;28;20033;-84
2022/08/08 05:49:23;;;;;;;10.55;6.70;;;13.80;99.90;;;;;;5010384;28;20221;-84
2022/08/08 05:51:49;;;;;;;12.02;7.03;;;14.10;99.90;;;;;;5006209;28;20033;-84
2022/08/08 05:54:16;;;;;;;8.30;6.63;;;14.30;99.90;;;;;;5007115;28;20464;-83
2022/08/08 05:56:43;;;;;;;12.00;7.20;;;14.50;99.90;;;;;;5019425;28;20110;-84
2022/08/08 05:59:17;;;;;;;10.27;7.30;;;14.80;99.90;;;;;;5025972;28;20524;-84
2022/08/08 06:01:52;;;;;;;11.23;7.38;;;15.00;99.90;;;;;;5011689;28;20057;-84
2022/08/08 06:04:23;;;;;;;14.90;6.97;;;15.10;65.20;;;;;;5016370;28;20064;-84
2022/08/08 06:06:54;;;;;;;8.43;5.90;;;15.20;76.50;;;;;;5013679;28;20440;-84
2022/08/08 06:09:31;;;;;;;7.90;6.28;;;15.30;18.60;;;;;;5033116;28;20154;-84
2022/08/08 06:12:06;;;;;;;8.30;6.90;;;15.40;1.00;;;;;;5025139;28;20047;-84
2022/08/08 06:14:31;;;;;;;8.43;6.55;;;15.70;1.00;;;;;;5013047;28;20488;-84
2022/08/08 06:17:02;;;;;;;10.07;6.47;;;15.90;1.00;;;;;;5011392;28;20043;-83
2022/08/08 06:19:28;;;;;;;8.77;6.45;;;16.00;1.00;;;;;;5025519;28;20120;-83
2022/08/08 06:21:57;;;;;;;10.25;6.57;;;16.20;1.00;;;;;;5012373;28;20490;-83
2022/08/08 06:24:23;;;;;;;8.18;6.00;;;16.40;1.00;;;;;;5010110;28;20501;-84
2022/08/08 06:27:05;;;;;;;9.00;5.97;;;16.60;1.00;;;;;;5011241;28;20272;-83
2022/08/08 06:29:47;;;;;;;8.30;5.97;;;16.90;1.00;;;;;;5013123;28;20041;-84
2022/08/08 06:32:21;;;;;;;9.52;6.45;;;17.00;99.90;;;;;;5028048;28;20085;-83
2022/08/08 06:34:51;;;;;;;12.90;6.15;;;17.00;99.90;;;;;;5011547;28;20053;-84
2022/08/08 06:37:21;;;;;;;10.00;6.00;;;17.10;99.90;;;;;;5027361;28;20048;-84
2022/08/08 06:39:51;;;;;;;8.80;5.50;;;17.20;99.90;;;;;;5032995;28;20540;-84
2022/08/08 06:42:18;;;;;;;7.10;4.78;;;17.20;99.90;;;;;;5027565;28;20440;-84
2022/08/08 06:44:51;;;;;;;10.82;4.95;;;17.20;99.90;;;;;;5006601;28;20634;-84
2022/08/08 06:47:17;;;;;;;11.50;4.97;;;17.30;99.90;;;;;;5022589;28;20416;-83
2022/08/08 06:49:45;;;;;;;9.02;4.57;;;17.30;99.90;;;;;;5008767;28;20028;-84
2022/08/08 06:52:11;;;;;;;9.88;4.78;;;17.30;99.90;;;;;;5012093;28;20393;-84
2022/08/08 06:54:37;;;;;;;6.50;4.32;;;17.30;99.90;;;;;;5012143;28;20124;-84
2022/08/08 06:57:08;;;;;;;8.40;4.28;;;17.40;99.90;;;;;;5009520;28;20034;-83
2022/08/08 06:59:35;;;;;;;7.78;4.25;;;17.50;99.90;;;;;;5025151;28;20503;-83
2022/08/08 07:02:04;;;;;;;8.70;4.13;;;17.60;99.90;;;;;;5015012;28;20080;-84
2022/08/08 07:04:44;;;;;;;6.93;4.20;;;17.60;99.90;;;;;;5013861;28;20045;-83
2022/08/08 07:07:10;;;;;;;7.50;4.55;;;17.60;99.90;;;;;;5010157;28;20095;-83
2022/08/08 07:10:08;;;;;;;8.73;4.20;;;17.80;99.90;;;;;;5019654;28;20422;-84
2022/08/08 07:12:45;;;;;;;7.55;4.38;;;17.70;96.20;;;;;;5025150;28;20059;-83
2022/08/08 07:15:13;;;;;;;7.40;4.20;;;17.70;99.90;;;;;;5046454;28;20435;-83
2022/08/08 07:17:50;;;;;;;7.55;4.47;;;17.70;99.90;;;;;;5027767;28;20059;-83
2022/08/08 07:20:23;;;;;;;8.02;4.35;;;17.80;99.90;;;;;;5010521;28;20041;-84
2022/08/08 07:23:02;;;;;;;10.82;4.40;;;17.80;99.90;;;;;;5005565;28;20069;-83
2022/08/08 07:25:33;;;;;;;7.07;4.00;;;18.10;77.80;;;;;;5004641;28;20044;-83
2022/08/08 07:28:18;;;;;;;8.30;4.15;;;18.20;54.90;;;;;;5031146;28;20124;-84
2022/08/08 07:30:48;;;;;;;9.18;3.65;;;18.10;1.00;;;;;;5014411;28;20041;-84
2022/08/08 07:33:15;;;;;;;7.50;3.85;;;18.00;1.00;;;;;;5011841;28;20135;-84
2022/08/08 07:35:42;;;;;;;5.63;3.55;;;18.30;99.90;;;;;;5031891;28;20051;-83
2022/08/08 07:38:11;;;;;;;7.53;3.60;;;18.50;1.00;;;;;;5019842;28;20033;-83
2022/08/08 07:40:38;;;;;;;5.93;3.92;;;18.70;1.00;;;;;;5014437;28;20033;-84
2022/08/08 07:43:04;;;;;;;7.90;3.30;;;18.80;1.00;;;;;;5000849;28;20053;-84
2022/08/08 07:45:30;;;;;;;7.70;2.92;;;19.00;1.00;;;;;;5018660;28;20040;-84
2022/08/08 07:47:57;;;;;;;6.22;2.50;;;18.90;99.90;;;;;;5025689;28;20045;-84
2022/08/08 07:50:26;;;;;;;6.55;2.60;;;18.80;99.90;;;;;;5028728;28;20369;-85
2022/08/08 07:52:58;;;;;;;6.85;2.38;;;18.70;99.90;;;;;;5021207;28;20042;-83
2022/08/08 07:55:30;;;;;;;6.72;2.45;;;18.70;99.90;;;;;;5015115;28;20045;-84
2022/08/08 07:58:03;;;;;;;6.10;2.58;;;18.80;99.90;;;;;;5005916;28;20098;-83
2022/08/08 08:00:38;;;;;;;5.90;2.90;;;18.90;99.90;;;;;;5027371;28;20045;-83
2022/08/08 08:03:12;;;;;;;7.70;2.53;;;19.10;99.90;;;;;;5008855;28;20041;-84
2022/08/08 08:05:43;;;;;;;5.70;2.80;;;19.00;99.90;;;;;;5029178;28;20029;-83
2022/08/08 08:08:17;;;;;;;6.05;2.63;;;19.00;99.90;;;;;;5026066;28;20041;-84
2022/08/08 08:10:51;;;;;;;6.20;3.13;;;18.90;99.90;;;;;;5025324;28;20100;-84
2022/08/08 08:13:26;;;;;;;5.05;2.55;;;18.80;99.90;;;;;;5027217;28;20077;-84
2022/08/08 08:16:02;;;;;;;5.63;2.90;;;18.80;99.90;;;;;;5015609;28;20411;-83
2022/08/08 08:18:42;;;;;;;5.28;2.40;;;19.20;99.90;;;;;;5026551;28;20053;-84
2022/08/08 08:21:08;;;;;;;3.25;2.03;;;19.40;99.90;;;;;;5013302;28;20041;-84
2022/08/08 08:23:35;;;;;;;4.75;1.83;;;19.60;99.90;;;;;;5024863;28;20484;-83
2022/08/08 08:26:01;;;;;;;5.22;2.08;;;19.60;83.90;;;;;;5010413;28;20064;-84
2022/08/08 08:28:27;;;;;;;3.55;1.67;;;19.90;1.00;;;;;;5000953;28;20068;-84
2022/08/08 08:30:54;;;;;;;3.00;1.38;;;19.90;1.00;;;;;;5007870;28;20045;-84
2022/08/08 08:33:20;;;;;;;2.65;1.50;;;19.90;1.00;;;;;;5052303;28;20044;-84
2022/08/08 08:35:49;;;;;;;3.10;1.35;;;19.70;99.90;;;;;;5021119;28;20524;-84
2022/08/08 08:38:17;;;;;;;4.72;1.95;;;19.80;1.00;;;;;;5019352;28;20922;-85
2022/08/08 08:40:43;;;;;;;5.47;2.10;;;20.00;1.00;;;;;;5016152;28;20041;-83
2022/08/08 08:43:09;;;;;;;4.35;1.55;;;20.50;1.00;;;;;;5012569;28;20103;-84
2022/08/08 08:45:36;;;;;;;3.92;1.85;;;20.60;99.90;;;;;;5035724;28;20048;-84
2022/08/08 08:48:05;;;;;;;4.28;1.48;;;20.70;99.90;;;;;;5026349;28;20025;-84
2022/08/08 08:50:33;;;;;;;4.97;1.73;;;21.00;1.00;;;;;;5016194;28;20047;-84
2022/08/08 08:53:03;;;;;;;4.65;1.60;;;21.40;99.90;;;;;;5011521;28;20041;-83
2022/08/08 08:55:33;;;;;;;3.72;1.60;;;21.30;99.90;;;;;;5038388;28;20051;-84
2022/08/08 08:58:00;;;;;;;2.47;1.33;;;21.60;99.90;;;;;;5026788;28;20422;-84
2022/08/08 09:00:27;;;;;;;2.72;1.30;;;21.70;99.90;;;;;;5006852;28;20119;-84
2022/08/08 09:02:56;;;;;;;3.63;1.20;;;21.90;99.90;;;;;;5008551;28;20048;-84
2022/08/08 09:05:24;;;;;;;4.63;1.23;;;22.00;14.70;;;;;;5032200;28;20064;-85
2022/08/08 09:07:52;;;;;;;3.28;1.33;;;22.20;9.40;;;;;;5023951;28;20128;-84
2022/08/08 09:10:21;;;;;;;2.70;1.25;;;22.40;1.00;;;;;;5026428;28;20270;-84
2022/08/08 09:12:49;;;;;;;2.35;1.15;;;22.70;1.00;;;;;;5026756;28;20063;-84
2022/08/08 09:15:19;;;;;;;2.85;1.00;;;22.50;1.00;;;;;;5020514;28;20053;-84
2022/08/08 09:17:46;;;;;;;3.50;1.48;;;22.40;1.00;;;;;;5017818;28;20050;-84
2022/08/08 09:20:12;;;;;;;2.50;1.10;;;22.90;1.00;;;;;;5011757;28;20511;-84
2022/08/08 09:22:38;;;;;;;3.13;1.13;;;22.60;1.00;;;;;;5009045;28;20270;-84
2022/08/08 09:25:05;;;;;;;2.03;1.08;;;22.30;1.00;;;;;;5023811;28;20040;-84
2022/08/08 09:27:35;;;;;;;3.03;1.45;;;21.50;1.00;;;;;;5011021;28;20197;-84
2022/08/08 09:30:05;;;;;;;2.03;1.13;;;21.20;11.60;;;;;;5030475;28;20041;-84
2022/08/08 09:32:36;;;;;;;2.58;1.10;;;21.10;68.80;;;;;;5015336;28;20058;-85
2022/08/08 09:35:06;;;;;;;3.83;1.65;;;21.10;1.00;;;;;;5010242;28;20067;-83
2022/08/08 09:37:45;;;;;;;2.67;1.10;;;20.80;27.00;;;;;;5008565;28;20506;-84
2022/08/08 09:40:19;;;;;;;2.63;1.20;;;20.50;54.20;;;;;;5034497;28;20044;-85
2022/08/08 09:43:05;;;;;;;2.27;1.03;;;20.80;85.60;;;;;;5025902;28;20068;-84
2022/08/08 09:45:51;;;;;;;1.48;0.90;;;20.90;24.90;;;;;;5028262;28;20037;-84
2022/08/08 09:48:17;;;;;;;3.03;1.20;;;21.30;1.00;;;;;;5008670;28;20037;-84
2022/08/08 09:50:45;;;;;;;3.30;1.25;;;21.10;1.00;;;;;;5028600;28;20041;-83
2022/08/08 09:53:17;;;;;;;4.35;1.30;;;21.30;1.00;;;;;;5026314;28;20041;-84
2022/08/08 09:55:45;;;;;;;1.77;1.10;;;21.50;1.00;;;;;;5024595;28;20302;-84
2022/08/08 09:58:16;;;;;;;3.78;1.30;;;21.50;47.60;;;;;;5011047;28;20106;-85
2022/08/08 10:00:45;;;;;;;3.08;1.35;;;21.50;15.80;;;;;;5009977;28;20095;-83
2022/08/08 10:03:14;;;;;;;2.20;1.20;;;22.00;1.00;;;;;;5016225;28;20122;-84
2022/08/08 10:05:40;;;;;;;2.47;1.42;;;21.80;1.00;;;;;;5032487;28;20053;-84
2022/08/08 10:08:06;;;;;;;3.55;1.30;;;22.00;12.80;;;;;;5020334;28;20033;-84
2022/08/08 10:10:34;;;;;;;4.18;1.50;;;21.80;1.00;;;;;;5007491;28;20508;-84
2022/08/08 10:13:21;;;;;;;2.40;1.30;;;21.70;1.00;;;;;;5024017;28;20044;-83
2022/08/08 10:15:49;;;;;;;3.03;1.27;;;21.70;58.80;;;;;;5032272;28;20142;-85
2022/08/08 10:18:29;;;;;;;2.03;1.20;;;22.10;67.40;;;;;;5014911;28;20045;-84
2022/08/08 10:21:15;;;;;;;4.10;1.05;;;21.80;1.00;;;;;;5010364;28;20794;-83
2022/08/08 10:23:50;;;;;;;2.60;1.23;;;21.90;1.00;;;;;;5012039;28;20051;-84
2022/08/08 10:26:46;;;;;;;1.75;1.00;;;22.30;1.00;;;;;;5025700;28;20245;-84
2022/08/08 10:29:12;;;;;;;3.42;1.23;;;22.40;1.00;;;;;;5012155;28;20072;-84
2022/08/08 10:34:27;;;;;;;2.67;1.20;;;22.30;1.00;;;;;;5027602;28;20924;-84
2022/08/08 10:36:55;;;;;;;2.15;0.85;;;22.10;1.00;;;;;;5025465;28;20040;-84
2022/08/08 10:39:28;;;;;;;3.60;1.10;;;22.20;1.00;;;;;;5010694;28;20562;-83
2022/08/08 10:42:01;;;;;;;5.65;1.40;;;22.30;1.00;;;;;;5015088;28;20029;-83
2022/08/08 10:44:36;;;;;;;2.58;1.17;;;22.20;1.00;;;;;;5011778;28;20045;-83
2022/08/08 10:47:14;;;;;;;2.95;1.05;;;22.70;1.00;;;;;;5032101;28;20067;-83
2022/08/08 10:49:41;;;;;;;1.92;1.10;;;22.20;1.00;;;;;;5009553;28;20504;-83
2022/08/08 10:52:07;;;;;;;1.58;1.00;;;22.70;1.00;;;;;;5009613;28;20265;-84
2022/08/08 10:54:33;;;;;;;2.83;1.10;;;22.60;1.00;;;;;;5032591;28;20055;-85
2022/08/08 10:57:00;;;;;;;4.10;1.00;;;22.20;1.00;;;;;;5008772;28;20199;-84
2022/08/08 10:59:26;;;;;;;3.30;1.20;;;22.60;78.10;;;;;;5008474;28;20045;-84
2022/08/08 11:01:53;;;;;;;3.00;1.20;;;22.40;1.00;;;;;;5008228;28;20107;-84
2022/08/08 11:04:19;;;;;;;2.33;1.10;;;22.00;1.00;;;;;;5033301;28;20053;-84
2022/08/08 11:06:58;;;;;;;2.13;1.15;;;21.80;1.00;;;;;;5033981;28;20033;-84
2022/08/08 11:09:28;;;;;;;2.38;1.00;;;21.90;1.00;;;;;;5008853;28;20040;-84
2022/08/08 11:11:54;;;;;;;2.60;1.17;;;21.80;1.00;;;;;;5021557;28;20417;-84
2022/08/08 11:14:19;;;;;;;3.50;1.10;;;21.80;1.00;;;;;;5005603;28;20041;-84
2022/08/08 11:16:46;;;;;;;4.07;1.20;;;21.70;1.00;;;;;;5010413;28;20087;-83
2022/08/08 11:19:12;;;;;;;2.97;1.35;;;21.60;20.50;;;;;;5012951;28;20537;-84
2022/08/08 11:21:46;;;;;;;3.15;1.50;;;21.20;99.90;;;;;;5009370;28;20071;-82
2022/08/08 11:24:12;;;;;;;5.45;1.38;;;21.20;99.90;;;;;;5009798;28;20060;-84
2022/08/08 11:26:42;;;;;;;3.40;1.33;;;21.20;99.90;;;;;;5023411;28;20044;-84
2022/08/08 11:29:09;;;;;;;2.22;1.10;;;21.10;99.90;;;;;;5019720;28;20044;-84
2022/08/08 11:31:38;;;;;;;4.00;1.38;;;21.20;99.90;;;;;;5013505;28;20479;-84
2022/08/08 11:34:05;;;;;;;4.00;1.20;;;21.20;99.90;;;;;;5017560;28;20047;-84
2022/08/08 11:36:32;;;;;;;2.50;1.30;;;21.00;99.90;;;;;;5011078;28;20041;-84
2022/08/08 11:38:58;;;;;;;2.75;1.55;;;21.00;99.90;;;;;;5008968;28;22065;-84
2022/08/08 11:41:26;;;;;;;2.95;1.23;;;21.10;99.90;;;;;;5009196;28;20444;-84
2022/08/08 11:43:56;;;;;;;3.05;1.30;;;21.10;99.90;;;;;;5024291;28;20092;-84
2022/08/08 11:46:30;;;;;;;3.75;1.50;;;21.00;99.90;;;;;;5013362;28;20045;-84
2022/08/08 11:48:59;;;;;;;3.33;1.23;;;21.40;99.90;;;;;;5007192;28;20194;-85
2022/08/08 11:51:25;;;;;;;2.20;1.17;;;21.30;99.90;;;;;;5010834;28;20366;-85
2022/08/08 11:53:51;;;;;;;2.75;1.40;;;21.30;99.90;;;;;;5007658;28;20038;-84
2022/08/08 11:56:20;;;;;;;3.25;1.50;;;21.30;55.50;;;;;;5031137;28;20044;-84
2022/08/08 11:58:46;;;;;;;4.00;1.40;;;21.40;58.00;;;;;;5013353;28;20102;-83
2022/08/08 12:01:12;;;;;;;2.47;1.17;;;21.50;99.90;;;;;;5030097;28;20386;-83
2022/08/08 12:03:45;;;;;;;3.78;1.10;;;21.50;99.90;;;;;;5019686;28;20824;-84
2022/08/08 12:06:18;;;;;;;3.33;1.40;;;21.40;82.30;;;;;;5015819;28;20379;-85
2022/08/08 12:08:44;;;;;;;3.42;1.35;;;21.70;99.90;;;;;;5009903;28;20041;-84
2022/08/08 12:11:12;;;;;;;3.20;1.20;;;21.40;74.30;;;;;;5014289;28;20041;-84
2022/08/08 12:13:38;;;;;;;4.28;1.45;;;21.30;91.40;;;;;;5048967;28;20411;-84
2022/08/08 12:16:20;;;;;;;3.25;1.42;;;21.40;45.40;;;;;;5032748;28;20034;-84
2022/08/08 12:18:49;;;;;;;4.47;1.60;;;21.30;99.90;;;;;;5006734;28;20606;-84
2022/08/08 12:21:33;;;;;;;2.45;1.40;;;21.50;99.90;;;;;;5014587;28;20041;-84
2022/08/08 12:24:18;;;;;;;2.97;1.10;;;21.50;96.30;;;;;;5051325;28;20541;-84
2022/08/08 12:26:47;;;;;;;2.60;1.23;;;21.50;67.70;;;;;;5015506;28;20037;-83
2022/08/08 12:29:26;;;;;;;3.88;1.10;;;21.60;1.00;;;;;;5019739;28;20037;-85
2022/08/08 12:32:13;;;;;;;2.95;1.00;;;21.60;1.00;;;;;;5015281;28;20342;-84
2022/08/08 12:34:55;;;;;;;2.58;1.20;;;21.60;7.60;;;;;;5030105;28;20036;-84
2022/08/08 12:37:30;;;;;;;2.75;1.20;;;21.80;1.00;;;;;;5035704;28;20093;-84
2022/08/08 12:40:17;;;;;;;11.82;1.50;;;21.90;1.00;;;;;;5011934;28;20099;-84
2022/08/08 12:42:47;;;;;;;8.88;1.30;;;22.40;1.00;;;;;;5021903;28;20083;-84
2022/08/08 12:45:13;;;;;;;1.95;1.10;;;22.60;1.00;;;;;;5017795;28;20350;-84
2022/08/08 12:47:39;;;;;;;3.35;1.10;;;22.70;1.00;;;;;;5028626;28;20045;-84
2022/08/08 12:50:06;;;;;;;2.97;1.20;;;22.40;1.00;;;;;;5008908;28;20047;-84
2022/08/08 12:52:38;;;;;;;3.53;1.20;;;21.80;1.00;;;;;;5015965;28;20121;-84
2022/08/08 12:55:11;;;;;;;4.63;1.30;;;21.70;1.00;;;;;;5014316;28;20373;-84
2022/08/08 12:57:37;;;;;;;1.85;1.00;;;22.00;1.00;;;;;;5027213;28;20045;-84
2022/08/08 13:00:07;;;;;;;2.58;1.23;;;22.00;1.00;;;;;;5026961;28;20045;-84
2022/08/08 13:02:40;;;;;;;2.25;1.30;;;21.70;51.90;;;;;;5012545;28;20441;-84
2022/08/08 13:05:18;;;;;;;2.63;1.25;;;21.70;1.00;;;;;;5033440;28;20033;-84
2022/08/08 13:07:44;;;;;;;1.75;1.15;;;21.40;59.90;;;;;;5013905;28;20063;-84
2022/08/08 13:10:14;;;;;;;2.90;1.40;;;21.40;81.20;;;;;;5015128;28;20049;-84
2022/08/08 13:12:41;;;;;;;2.40;1.10;;;21.40;26.70;;;;;;5015153;28;20400;-84
2022/08/08 13:15:09;;;;;;;2.72;1.38;;;21.40;79.40;;;;;;5016523;28;20497;-84
2022/08/08 13:17:37;;;;;;;3.08;1.42;;;21.50;58.40;;;;;;5012728;28;20635;-85
2022/08/08 13:20:12;;;;;;;2.70;1.50;;;21.50;90.30;;;;;;5012489;28;20083;-84
2022/08/08 13:22:38;;;;;;;2.90;1.45;;;21.90;80.10;;;;;;5036817;28;20057;-84
2022/08/08 13:25:11;;;;;;;5.78;1.50;;;22.40;22.40;;;;;;5008167;28;20033;-84
2022/08/08 13:27:37;;;;;;;4.28;1.30;;;22.70;1.00;;;;;;5017723;28;20041;-84
2022/08/08 13:30:05;;;;;;;4.45;1.50;;;23.00;6.10;;;;;;5028838;28;20045;-84